Time;durP1;ratioP1;P1;durP2;ratioP2;P2;SDS_P1;SDS_P2;PMS_P1;PMS_P2;Temp;Humidity;BMP_temperature;BMP_pressure;BME280_temperature;BME280_humidity;BME280_pressure;Samples;Min_cycle;Max_cycle;Signal;HPM_P1;HPM_P2
2021/12/06 05:00:58;;;;;;;30.80;14.93;;;3.20;99.90;;;;;;5744792;23;21054;-80
2021/12/06 05:03:25;;;;;;;28.77;16.60;;;3.20;99.90;;;;;;4974496;28;20548;-81
2021/12/06 05:05:57;;;;;;;28.53;15.53;;;3.20;99.90;;;;;;4974617;28;20470;-81
2021/12/06 05:08:27;;;;;;;31.13;15.87;;;3.20;99.90;;;;;;4975196;28;20538;-81
2021/12/06 05:10:55;;;;;;;33.17;16.83;;;3.20;99.90;;;;;;4968914;28;20556;-81
2021/12/06 05:13:23;;;;;;;32.20;16.47;;;3.20;99.90;;;;;;4978222;23;20588;-77
2021/12/06 05:15:50;;;;;;;24.03;13.70;;;3.10;99.90;;;;;;4953013;29;20540;-77
2021/12/06 05:18:18;;;;;;;20.10;12.00;;;3.10;99.90;;;;;;4953526;29;20575;-77
2021/12/06 05:20:45;;;;;;;22.40;12.40;;;3.20;99.90;;;;;;4953297;28;20455;-77
2021/12/06 05:23:13;;;;;;;20.83;11.10;;;3.10;99.90;;;;;;4953397;28;20576;-77
2021/12/06 05:25:40;;;;;;;22.60;12.17;;;3.20;99.90;;;;;;4953281;28;20543;-77
2021/12/06 05:28:07;;;;;;;22.67;11.60;;;3.10;99.90;;;;;;4953643;29;20544;-77
2021/12/06 05:30:36;;;;;;;21.80;12.13;;;3.10;99.90;;;;;;4953372;28;20485;-77
2021/12/06 05:33:04;;;;;;;23.70;12.63;;;3.10;99.90;;;;;;4953249;28;21018;-77
2021/12/06 05:35:33;;;;;;;24.00;12.50;;;3.10;99.90;;;;;;4953198;29;20853;-77
2021/12/06 05:38:01;;;;;;;25.57;13.30;;;3.10;99.90;;;;;;4952983;29;20496;-77
2021/12/06 05:40:31;;;;;;;23.63;13.60;;;3.00;99.90;;;;;;4952786;29;20971;-77
2021/12/06 05:42:59;;;;;;;23.00;12.73;;;3.00;99.90;;;;;;4955366;28;20900;-77
2021/12/06 05:45:29;;;;;;;26.87;14.33;;;2.90;99.90;;;;;;4956756;29;20499;-77
2021/12/06 05:47:56;;;;;;;23.40;13.40;;;2.90;99.90;;;;;;4956751;29;20949;-77
2021/12/06 05:50:25;;;;;;;28.87;14.50;;;2.90;99.90;;;;;;4956408;28;20498;-77
2021/12/06 05:52:55;;;;;;;26.10;14.37;;;2.90;99.90;;;;;;4956778;28;20484;-77
2021/12/06 05:55:24;;;;;;;24.97;13.53;;;2.90;99.90;;;;;;4957110;29;20540;-77
2021/12/06 05:57:52;;;;;;;25.03;13.37;;;2.80;99.90;;;;;;4956585;29;20568;-77
2021/12/06 06:00:21;;;;;;;31.40;13.37;;;2.90;99.90;;;;;;4956296;28;20464;-77
2021/12/06 06:02:49;;;;;;;24.70;13.20;;;2.90;99.90;;;;;;4956347;28;20548;-72
2021/12/06 06:05:18;;;;;;;24.07;12.40;;;2.90;99.90;;;;;;4956398;29;20452;-72
2021/12/06 06:07:45;;;;;;;25.80;13.27;;;2.90;99.90;;;;;;4956238;29;20537;-72
2021/12/06 06:10:15;;;;;;;21.80;12.40;;;3.00;99.90;;;;;;4955704;29;20543;-73
2021/12/06 06:12:42;;;;;;;20.63;12.00;;;3.00;99.90;;;;;;4956331;28;20531;-68
2021/12/06 06:15:10;;;;;;;24.80;12.33;;;3.00;99.90;;;;;;4956435;29;20543;-67
2021/12/06 06:17:42;;;;;;;26.30;12.33;;;3.00;99.90;;;;;;4956560;29;20829;-68
2021/12/06 06:20:13;;;;;;;24.33;12.73;;;2.90;99.90;;;;;;4956122;29;20453;-68
2021/12/06 06:22:41;;;;;;;19.87;10.90;;;3.00;99.90;;;;;;4956308;28;20881;-73
2021/12/06 06:25:09;;;;;;;22.27;12.20;;;3.00;99.90;;;;;;4955940;29;20467;-72
2021/12/06 06:27:37;;;;;;;21.27;10.67;;;3.00;99.90;;;;;;4955995;28;20819;-72
2021/12/06 06:30:05;;;;;;;18.83;10.97;;;3.00;99.90;;;;;;4955629;29;20555;-72
2021/12/06 06:32:32;;;;;;;19.83;11.47;;;3.00;99.90;;;;;;4956194;28;20563;-72
2021/12/06 06:34:59;;;;;;;19.57;11.07;;;3.00;99.90;;;;;;4956115;29;20532;-72
2021/12/06 06:37:26;;;;;;;17.93;10.67;;;2.90;99.90;;;;;;4955709;29;20556;-72
2021/12/06 06:39:53;;;;;;;20.83;11.87;;;2.90;99.90;;;;;;4955792;29;21039;-72
2021/12/06 06:42:23;;;;;;;18.90;11.47;;;2.80;99.90;;;;;;4955917;29;20491;-72
2021/12/06 06:44:51;;;;;;;19.50;11.47;;;2.90;99.90;;;;;;4955573;28;20492;-72
2021/12/06 06:47:18;;;;;;;21.10;12.00;;;2.90;99.90;;;;;;4955849;29;20529;-72
2021/12/06 06:49:45;;;;;;;25.40;13.40;;;2.90;99.90;;;;;;4955217;29;20543;-72
2021/12/06 06:52:12;;;;;;;23.97;13.93;;;3.00;99.90;;;;;;4955539;28;20480;-72
2021/12/06 06:54:39;;;;;;;24.20;14.53;;;3.00;99.90;;;;;;4954845;28;20564;-73
2021/12/06 06:57:06;;;;;;;23.27;14.37;;;3.00;99.90;;;;;;4955427;29;20532;-72
2021/12/06 06:59:33;;;;;;;32.70;17.03;;;3.00;99.90;;;;;;4955066;29;20579;-72
2021/12/06 07:02:02;;;;;;;26.80;14.90;;;3.00;99.90;;;;;;4955622;29;20540;-72
2021/12/06 07:04:29;;;;;;;44.83;23.77;;;2.90;99.90;;;;;;4955193;28;20505;-72
2021/12/06 07:06:56;;;;;;;44.67;21.73;;;2.90;99.90;;;;;;4955277;29;20890;-72
2021/12/06 07:09:23;;;;;;;44.83;24.37;;;2.90;99.90;;;;;;4955106;28;20484;-73
2021/12/06 07:11:52;;;;;;;52.37;25.67;;;2.90;99.90;;;;;;4955222;28;20520;-72
2021/12/06 07:14:19;;;;;;;59.67;27.60;;;2.90;99.90;;;;;;4955122;28;20572;-73
2021/12/06 07:16:48;;;;;;;57.40;28.23;;;2.80;99.90;;;;;;4955287;29;20445;-72
2021/12/06 07:19:16;;;;;;;53.07;28.33;;;2.70;99.90;;;;;;4954611;29;21083;-73
2021/12/06 07:21:43;;;;;;;56.63;27.07;;;2.70;99.90;;;;;;4955183;29;20544;-72
2021/12/06 07:24:10;;;;;;;66.53;30.50;;;2.60;99.90;;;;;;4954817;28;20595;-73
2021/12/06 07:26:37;;;;;;;70.97;29.80;;;2.60;99.90;;;;;;4955274;29;20466;-72
2021/12/06 07:29:05;;;;;;;57.73;28.50;;;2.60;99.90;;;;;;4954920;29;20465;-73
2021/12/06 07:31:32;;;;;;;62.63;27.17;;;2.60;99.90;;;;;;4955067;29;20547;-73
2021/12/06 07:33:59;;;;;;;54.50;26.70;;;2.60;99.90;;;;;;4954905;28;20527;-72
2021/12/06 07:36:29;;;;;;;49.43;25.00;;;2.60;99.90;;;;;;4954733;29;20548;-72
2021/12/06 07:38:56;;;;;;;50.37;26.60;;;2.50;99.90;;;;;;4954410;29;20502;-73
2021/12/06 07:41:26;;;;;;;60.23;26.90;;;2.60;99.90;;;;;;4954526;29;21012;-72
2021/12/06 07:43:53;;;;;;;55.07;25.40;;;2.50;99.90;;;;;;4954678;28;21019;-73
2021/12/06 07:46:20;;;;;;;56.20;25.97;;;2.50;99.90;;;;;;4954628;29;21040;-72
2021/12/06 07:48:52;;;;;;;53.70;24.33;;;2.60;99.90;;;;;;4954458;29;20551;-73
2021/12/06 07:51:19;;;;;;;61.93;28.27;;;2.60;99.90;;;;;;4954496;29;20957;-73
2021/12/06 07:53:48;;;;;;;68.17;28.20;;;2.60;99.90;;;;;;4954257;28;21044;-72
2021/12/06 07:56:15;;;;;;;56.23;29.57;;;2.50;99.90;;;;;;4954628;29;20495;-73
2021/12/06 07:58:42;;;;;;;65.23;29.87;;;2.60;99.90;;;;;;4954283;28;20855;-72
2021/12/06 08:01:10;;;;;;;74.87;31.33;;;2.60;99.90;;;;;;4954337;29;20887;-72
2021/12/06 08:03:37;;;;;;;62.47;30.47;;;2.60;99.90;;;;;;4954338;28;20472;-73
2021/12/06 08:06:05;;;;;;;69.10;32.13;;;2.50;99.90;;;;;;4953222;28;21008;-73
2021/12/06 08:08:34;;;;;;;77.13;30.90;;;2.60;99.90;;;;;;4954525;29;20883;-73
2021/12/06 08:11:06;;;;;;;66.97;30.20;;;2.50;99.90;;;;;;4954394;28;20456;-72
2021/12/06 08:13:35;;;;;;;62.87;27.57;;;2.50;99.90;;;;;;4954138;28;20488;-72
2021/12/06 08:16:05;;;;;;;68.23;30.87;;;2.50;99.90;;;;;;4954190;29;20552;-73
2021/12/06 08:18:33;;;;;;;73.20;31.37;;;2.50;99.90;;;;;;4953921;29;21036;-73
2021/12/06 08:21:00;;;;;;;76.87;30.53;;;2.50;99.90;;;;;;4954097;28;20544;-73
2021/12/06 08:23:27;;;;;;;75.70;30.20;;;2.60;99.90;;;;;;4953936;28;20977;-73
2021/12/06 08:25:55;;;;;;;82.47;31.10;;;2.50;99.90;;;;;;4954145;29;20528;-73
2021/12/06 08:28:24;;;;;;;72.70;30.53;;;2.40;99.90;;;;;;4954025;29;20445;-73
2021/12/06 08:30:53;;;;;;;71.13;29.93;;;2.50;99.90;;;;;;4953420;29;20801;-73
2021/12/06 08:33:21;;;;;;;75.27;32.30;;;2.60;99.90;;;;;;4953849;28;20555;-73
2021/12/06 08:35:52;;;;;;;86.87;33.50;;;2.70;99.90;;;;;;4954065;29;20453;-73
2021/12/06 08:38:20;;;;;;;86.67;34.97;;;2.60;99.90;;;;;;4954158;29;20559;-73
2021/12/06 08:40:48;;;;;;;89.50;33.97;;;2.70;99.90;;;;;;4953586;28;20544;-73
2021/12/06 08:43:17;;;;;;;78.57;33.17;;;2.70;99.90;;;;;;4953686;28;20491;-73
2021/12/06 08:45:49;;;;;;;84.27;34.17;;;2.70;99.90;;;;;;4953955;29;20563;-73
2021/12/06 08:48:16;;;;;;;77.87;35.10;;;2.70;99.90;;;;;;4953791;29;20455;-73
2021/12/06 08:50:43;;;;;;;83.50;33.20;;;2.70;99.90;;;;;;4953776;29;20531;-72
2021/12/06 08:53:10;;;;;;;94.50;34.50;;;2.70;99.90;;;;;;4953517;28;20567;-73
2021/12/06 08:55:37;;;;;;;81.80;32.90;;;2.60;99.90;;;;;;4953708;29;20558;-73
2021/12/06 08:58:04;;;;;;;91.80;34.83;;;2.60;99.90;;;;;;4953623;29;20544;-73
2021/12/06 09:00:34;;;;;;;79.53;34.53;;;2.60;99.90;;;;;;4952791;28;20572;-73
2021/12/06 09:03:03;;;;;;;83.67;34.60;;;2.70;99.90;;;;;;4953784;29;20559;-73
2021/12/06 09:05:34;;;;;;;83.93;33.17;;;2.80;99.90;;;;;;4953961;29;20499;-72
2021/12/06 09:08:01;;;;;;;82.73;33.10;;;2.80;99.90;;;;;;4952043;29;21033;-72
2021/12/06 09:10:29;;;;;;;72.07;30.20;;;2.70;99.90;;;;;;4951961;29;20480;-72
2021/12/06 09:12:57;;;;;;;80.93;31.87;;;2.70;99.90;;;;;;4953590;28;20516;-72
2021/12/06 09:15:25;;;;;;;81.47;28.97;;;2.70;99.90;;;;;;4953701;29;20551;-72
2021/12/06 09:17:55;;;;;;;80.43;28.33;;;2.60;99.90;;;;;;4955516;28;20536;-73
2021/12/06 09:20:27;;;;;;;73.63;29.00;;;2.60;99.90;;;;;;4956937;29;20519;-73
2021/12/06 09:22:54;;;;;;;76.80;31.17;;;2.60;99.90;;;;;;4956985;29;20500;-72
2021/12/06 09:25:21;;;;;;;74.07;28.23;;;2.50;99.90;;;;;;4957435;29;20485;-73
2021/12/06 09:27:49;;;;;;;73.97;29.70;;;2.60;99.90;;;;;;4957328;29;20540;-73
2021/12/06 09:30:21;;;;;;;67.17;28.53;;;2.70;99.90;;;;;;4957304;29;20488;-73
2021/12/06 09:32:48;;;;;;;60.77;26.17;;;2.70;99.90;;;;;;4956994;29;20452;-73
2021/12/06 09:35:21;;;;;;;69.93;27.07;;;2.80;99.90;;;;;;4957490;29;20548;-72
2021/12/06 09:37:50;;;;;;;60.60;26.40;;;2.80;99.90;;;;;;4957027;28;20469;-72
2021/12/06 09:40:17;;;;;;;62.03;27.67;;;2.80;99.90;;;;;;4956774;29;20527;-72
2021/12/06 09:42:44;;;;;;;59.17;26.10;;;2.80;99.90;;;;;;4956863;29;20491;-73
2021/12/06 09:45:14;;;;;;;64.13;27.60;;;2.90;99.90;;;;;;4957021;29;20543;-72
2021/12/06 09:47:45;;;;;;;54.33;26.03;;;2.90;99.90;;;;;;4956804;29;20459;-72
2021/12/06 09:50:12;;;;;;;56.20;26.60;;;2.90;99.90;;;;;;4956447;29;20535;-73
2021/12/06 09:52:39;;;;;;;57.83;27.67;;;2.80;99.90;;;;;;4956873;29;20556;-73
2021/12/06 09:55:09;;;;;;;51.73;25.20;;;2.80;99.90;;;;;;4956917;29;20463;-73
2021/12/06 09:57:36;;;;;;;58.13;26.70;;;2.80;99.90;;;;;;4956621;29;20922;-73
2021/12/06 10:00:03;;;;;;;56.87;27.00;;;2.80;99.90;;;;;;4956384;29;20595;-73
2021/12/06 10:02:30;;;;;;;51.33;24.80;;;2.90;99.90;;;;;;4956516;29;20563;-73
2021/12/06 10:04:57;;;;;;;53.70;27.30;;;3.00;99.90;;;;;;4956744;29;20491;-73
2021/12/06 10:07:26;;;;;;;59.60;27.93;;;3.00;99.90;;;;;;4956698;29;20540;-73
2021/12/06 10:09:53;;;;;;;58.80;28.03;;;2.90;99.90;;;;;;4956287;29;20531;-73
2021/12/06 10:12:27;;;;;;;53.37;26.53;;;2.90;99.90;;;;;;4956431;29;20956;-73
2021/12/06 10:14:55;;;;;;;56.80;29.03;;;2.90;99.90;;;;;;4956157;29;20579;-73
2021/12/06 10:17:22;;;;;;;52.23;26.70;;;2.90;99.90;;;;;;4956268;29;20511;-73
2021/12/06 10:19:52;;;;;;;49.33;24.97;;;3.00;99.90;;;;;;4956130;29;20587;-73
2021/12/06 10:22:19;;;;;;;54.50;26.50;;;3.10;99.90;;;;;;4956357;29;20460;-73
2021/12/06 10:24:52;;;;;;;52.87;25.83;;;3.20;99.90;;;;;;4956121;29;20559;-73
2021/12/06 10:27:20;;;;;;;54.00;27.97;;;3.20;99.90;;;;;;4956195;29;20548;-73
2021/12/06 10:29:52;;;;;;;49.60;26.30;;;3.20;99.90;;;;;;4954801;28;20552;-72
2021/12/06 10:32:23;;;;;;;61.37;29.83;;;3.20;99.90;;;;;;4956307;29;20457;-70
2021/12/06 10:34:54;;;;;;;54.03;27.77;;;3.30;99.90;;;;;;4956100;29;20559;-68
2021/12/06 10:37:29;;;;;;;44.93;26.70;;;3.30;99.90;;;;;;4956055;29;20496;-68
2021/12/06 10:39:57;;;;;;;48.03;27.17;;;3.30;99.90;;;;;;4955495;29;20575;-69
2021/12/06 10:42:30;;;;;;;52.77;27.03;;;3.30;99.90;;;;;;4955759;29;20488;-70
2021/12/06 10:45:01;;;;;;;46.17;25.30;;;3.30;99.90;;;;;;4955944;29;20535;-70
2021/12/06 10:47:29;;;;;;;45.87;24.87;;;3.30;99.90;;;;;;4955936;28;20453;-69
2021/12/06 10:50:11;;;;;;;49.20;26.30;;;3.40;99.90;;;;;;4955498;28;21050;-72
2021/12/06 10:52:52;;;;;;;50.27;26.67;;;3.50;99.90;;;;;;4955559;28;20546;-73
2021/12/06 10:55:21;;;;;;;40.03;24.10;;;3.50;99.90;;;;;;4955893;28;20507;-73
2021/12/06 10:57:52;;;;;;;42.77;25.33;;;3.60;99.90;;;;;;4955789;28;20805;-73
2021/12/06 11:00:42;;;;;;;50.00;24.97;;;3.60;99.90;;;;;;4955357;29;20580;-73
2021/12/06 11:03:30;;;;;;;41.40;24.10;;;3.60;99.90;;;;;;4955460;29;20989;-73
2021/12/06 11:06:01;;;;;;;49.00;26.30;;;3.60;99.90;;;;;;4955540;29;20901;-74
2021/12/06 11:08:29;;;;;;;41.63;24.00;;;3.60;99.90;;;;;;4955146;29;20453;-73
2021/12/06 11:10:58;;;;;;;49.23;24.87;;;3.60;99.90;;;;;;4955306;28;20460;-73
2021/12/06 11:13:29;;;;;;;41.73;22.50;;;3.60;99.90;;;;;;4995160;23;20519;-73
2021/12/06 11:16:05;;;;;;;34.33;20.67;;;3.60;99.90;;;;;;4935315;29;21006;-74
2021/12/06 11:18:42;;;;;;;36.87;21.50;;;3.50;99.90;;;;;;4935645;29;20492;-74
2021/12/06 11:21:24;;;;;;;40.30;21.40;;;3.30;99.90;;;;;;4935132;29;20564;-74
2021/12/06 11:24:10;;;;;;;43.57;22.73;;;3.40;99.90;;;;;;4935111;29;20553;-74
2021/12/06 11:26:43;;;;;;;38.03;21.53;;;3.40;99.90;;;;;;4935086;29;20453;-74
2021/12/06 11:29:16;;;;;;;37.30;21.10;;;3.50;99.90;;;;;;4934948;29;20533;-74
2021/12/06 11:31:51;;;;;;;43.20;23.07;;;3.40;99.90;;;;;;4935555;29;20517;-74
2021/12/06 11:34:18;;;;;;;39.63;21.70;;;3.30;99.90;;;;;;4934833;29;20917;-74
2021/12/06 11:36:45;;;;;;;40.27;21.23;;;3.40;99.90;;;;;;4935446;29;20973;-74
2021/12/06 11:39:15;;;;;;;48.83;22.60;;;3.40;99.90;;;;;;4935517;29;20461;-74
2021/12/06 11:41:45;;;;;;;42.17;21.63;;;3.40;99.90;;;;;;4935446;29;20549;-74
2021/12/06 11:44:23;;;;;;;43.57;22.97;;;3.30;99.90;;;;;;4935655;29;20473;-75
2021/12/06 11:47:06;;;;;;;40.97;21.73;;;3.40;99.90;;;;;;4935490;29;20536;-75
2021/12/06 11:49:37;;;;;;;45.63;22.97;;;3.50;99.90;;;;;;4935503;29;20553;-75
2021/12/06 11:52:07;;;;;;;46.87;23.00;;;3.60;99.90;;;;;;4935683;29;20529;-75
2021/12/06 11:54:53;;;;;;;47.60;23.60;;;3.60;99.90;;;;;;4935046;29;20489;-75
2021/12/06 11:57:28;;;;;;;47.53;24.40;;;3.70;99.90;;;;;;4935767;29;20613;-75
2021/12/06 12:00:06;;;;;;;54.30;21.93;;;3.60;99.90;;;;;;4934961;29;20499;-74
2021/12/06 12:02:41;;;;;;;43.90;22.73;;;3.60;99.90;;;;;;4932392;29;21091;-74
2021/12/06 12:05:17;;;;;;;43.43;21.97;;;3.70;99.90;;;;;;4934022;29;20556;-74
2021/12/06 12:08:09;;;;;;;47.73;21.80;;;3.70;99.90;;;;;;4923924;29;20595;-74
2021/12/06 12:10:41;;;;;;;40.37;22.27;;;3.80;99.90;;;;;;4920987;29;20942;-74
2021/12/06 12:13:11;;;;;;;44.90;23.37;;;3.80;99.90;;;;;;4919915;29;20454;-74
2021/12/06 12:15:40;;;;;;;41.97;22.13;;;3.80;99.90;;;;;;4916035;29;20529;-74
2021/12/06 12:18:08;;;;;;;43.93;23.60;;;3.80;99.90;;;;;;4915823;29;20537;-74
2021/12/06 12:20:36;;;;;;;40.60;23.17;;;3.90;99.90;;;;;;4916021;29;20491;-74
2021/12/06 12:23:08;;;;;;;41.73;23.07;;;3.90;99.90;;;;;;4916045;29;20542;-75
2021/12/06 12:25:39;;;;;;;46.60;23.70;;;4.00;99.90;;;;;;4919170;29;20552;-76
2021/12/06 12:28:17;;;;;;;37.93;21.10;;;4.00;99.90;;;;;;4917076;29;20502;-75
2021/12/06 12:30:46;;;;;;;44.50;22.77;;;4.20;99.90;;;;;;4915749;29;20458;-75
2021/12/06 12:33:13;;;;;;;46.40;22.83;;;4.20;99.90;;;;;;4916054;29;20519;-75
2021/12/06 12:35:42;;;;;;;41.60;22.93;;;4.20;99.90;;;;;;4915698;29;20998;-75
2021/12/06 12:38:11;;;;;;;40.43;21.80;;;4.30;99.90;;;;;;4915960;29;20458;-75
2021/12/06 12:40:42;;;;;;;40.60;22.27;;;4.30;99.90;;;;;;4915662;29;20507;-75
2021/12/06 12:43:12;;;;;;;38.37;20.40;;;4.30;99.90;;;;;;4915955;29;20545;-75
2021/12/06 12:45:41;;;;;;;43.30;22.37;;;4.20;99.90;;;;;;4915809;29;20972;-75
2021/12/06 12:48:11;;;;;;;41.80;22.70;;;4.20;99.90;;;;;;4915873;29;20506;-75
2021/12/06 12:50:38;;;;;;;39.77;22.50;;;4.30;99.90;;;;;;4915087;29;20991;-76
2021/12/06 12:53:08;;;;;;;41.77;21.80;;;4.20;99.90;;;;;;4914217;29;20494;-75
2021/12/06 12:55:37;;;;;;;41.43;22.60;;;4.30;99.90;;;;;;4914395;29;20558;-75
2021/12/06 12:58:10;;;;;;;44.30;23.00;;;4.30;99.90;;;;;;4914945;29;20553;-75
2021/12/06 13:00:46;;;;;;;39.17;22.10;;;4.30;99.90;;;;;;4914427;29;20498;-75
2021/12/06 13:03:35;;;;;;;39.33;21.33;;;4.30;99.90;;;;;;4914765;29;20462;-75
2021/12/06 13:06:24;;;;;;;40.10;23.10;;;4.30;99.90;;;;;;4914561;29;20553;-75
2021/12/06 13:08:54;;;;;;;40.53;23.10;;;4.40;99.90;;;;;;4914725;29;20451;-75
2021/12/06 13:11:23;;;;;;;42.37;21.13;;;4.40;99.90;;;;;;4914682;29;20450;-75
2021/12/06 13:13:51;;;;;;;42.80;23.13;;;4.40;99.90;;;;;;4914419;29;21053;-75
2021/12/06 13:16:36;;;;;;;39.27;22.90;;;4.50;99.90;;;;;;4914479;29;20461;-75
2021/12/06 13:19:19;;;;;;;40.63;23.17;;;4.50;99.90;;;;;;4914570;29;20546;-75
2021/12/06 13:22:08;;;;;;;41.30;22.87;;;4.50;99.90;;;;;;4914859;29;20485;-75
2021/12/06 13:24:50;;;;;;;40.90;22.63;;;4.50;99.90;;;;;;4914579;29;20470;-75
2021/12/06 13:27:41;;;;;;;38.93;21.50;;;4.50;99.90;;;;;;4914968;29;20558;-75
2021/12/06 13:30:21;;;;;;;39.17;22.40;;;4.60;99.90;;;;;;4913255;29;20498;-75
2021/12/06 13:32:53;;;;;;;40.30;22.47;;;4.60;99.90;;;;;;4915306;29;20833;-75
2021/12/06 13:35:46;;;;;;;43.03;22.27;;;4.60;99.90;;;;;;4914937;29;21344;-75
2021/12/06 13:38:29;;;;;;;38.10;21.30;;;4.60;99.90;;;;;;4915133;29;20541;-75
2021/12/06 13:41:21;;;;;;;34.93;20.13;;;4.70;99.90;;;;;;4914850;29;20534;-75
2021/12/06 13:43:56;;;;;;;40.27;21.50;;;4.70;99.90;;;;;;4915354;29;20482;-75
2021/12/06 13:46:32;;;;;;;36.60;20.70;;;4.60;99.90;;;;;;4915134;29;20978;-75
2021/12/06 13:49:04;;;;;;;39.00;21.33;;;4.70;99.90;;;;;;4914932;29;20500;-75
2021/12/06 13:51:43;;;;;;;39.93;21.27;;;4.70;99.90;;;;;;4915139;29;20451;-75
2021/12/06 13:54:13;;;;;;;35.30;20.90;;;4.70;99.90;;;;;;4914942;29;20478;-75
2021/12/06 13:56:52;;;;;;;35.90;20.30;;;4.80;99.90;;;;;;4915231;29;20557;-75
2021/12/06 13:59:22;;;;;;;36.03;20.30;;;4.80;99.90;;;;;;4914840;29;21027;-75
2021/12/06 14:01:50;;;;;;;33.90;20.40;;;4.80;99.90;;;;;;4915041;29;21207;-75
2021/12/06 14:04:20;;;;;;;35.03;19.77;;;4.80;99.90;;;;;;4915592;29;21062;-75
2021/12/06 14:06:51;;;;;;;35.70;20.90;;;4.90;99.90;;;;;;4918537;29;20489;-75
2021/12/06 14:09:19;;;;;;;33.87;19.73;;;4.90;99.90;;;;;;4918096;29;20538;-75
2021/12/06 14:11:54;;;;;;;36.23;20.10;;;4.90;99.90;;;;;;4918416;29;20884;-75
2021/12/06 14:14:24;;;;;;;31.27;19.70;;;4.80;99.90;;;;;;4917967;29;20873;-75
2021/12/06 14:16:53;;;;;;;33.73;20.30;;;4.80;99.90;;;;;;4918062;29;20454;-75
2021/12/06 14:19:23;;;;;;;33.80;21.03;;;4.90;99.90;;;;;;4918104;29;20538;-75
2021/12/06 14:21:53;;;;;;;36.53;21.87;;;4.90;99.90;;;;;;4918089;29;20504;-75
2021/12/06 14:24:22;;;;;;;37.87;21.20;;;4.90;99.90;;;;;;4917820;29;21022;-75
2021/12/06 14:26:50;;;;;;;35.47;21.20;;;4.90;99.90;;;;;;4917963;29;20490;-74
2021/12/06 14:29:19;;;;;;;33.60;21.90;;;4.80;99.90;;;;;;4917524;29;20457;-75
2021/12/06 14:31:50;;;;;;;35.43;21.97;;;4.90;99.90;;;;;;4918262;29;20447;-75
2021/12/06 14:34:17;;;;;;;40.03;21.40;;;4.90;99.90;;;;;;4917999;29;20481;-75
2021/12/06 14:36:45;;;;;;;36.50;23.70;;;4.80;99.90;;;;;;4917900;29;20561;-74
2021/12/06 14:39:16;;;;;;;46.17;24.63;;;4.80;99.90;;;;;;4917594;29;20505;-75
2021/12/06 14:41:55;;;;;;;44.00;23.50;;;4.80;99.90;;;;;;4917529;29;20573;-75
2021/12/06 14:44:44;;;;;;;33.10;20.03;;;4.80;99.90;;;;;;4917845;29;20510;-75
2021/12/06 14:47:14;;;;;;;38.47;21.30;;;4.70;99.90;;;;;;4916076;29;20554;-75
2021/12/06 14:49:43;;;;;;;36.43;21.73;;;4.70;99.90;;;;;;4917472;29;20463;-75
2021/12/06 14:52:15;;;;;;;37.40;19.53;;;4.60;99.90;;;;;;4917333;29;20952;-75
2021/12/06 14:55:21;;;;;;;38.50;21.10;;;4.60;99.90;;;;;;4917704;29;20482;-75
2021/12/06 14:57:49;;;;;;;31.97;19.00;;;4.60;99.90;;;;;;4917649;29;20458;-75
2021/12/06 15:00:19;;;;;;;34.00;19.77;;;4.50;99.90;;;;;;4917177;29;20825;-75
2021/12/06 15:02:51;;;;;;;38.73;22.07;;;4.50;99.90;;;;;;4917336;29;20474;-75
2021/12/06 15:05:23;;;;;;;38.17;22.40;;;4.50;99.90;;;;;;4917458;29;20577;-75
2021/12/06 15:07:55;;;;;;;36.90;21.17;;;4.50;99.90;;;;;;4917346;29;20546;-75
2021/12/06 15:10:24;;;;;;;38.23;21.60;;;4.50;99.90;;;;;;4917068;29;20454;-75
2021/12/06 15:12:53;;;;;;;38.43;23.50;;;4.50;99.90;;;;;;4917052;29;20455;-75
2021/12/06 15:15:22;;;;;;;35.47;22.10;;;4.50;99.90;;;;;;4916522;29;20516;-75
2021/12/06 15:17:52;;;;;;;37.67;22.57;;;4.50;99.90;;;;;;4917255;29;20506;-75
2021/12/06 15:20:19;;;;;;;42.80;25.20;;;4.50;99.90;;;;;;4916725;29;20868;-75
2021/12/06 15:22:46;;;;;;;43.67;24.90;;;4.50;99.90;;;;;;4916985;29;20519;-75
2021/12/06 15:25:13;;;;;;;43.33;23.70;;;4.50;99.90;;;;;;4915988;29;20477;-75
2021/12/06 15:27:43;;;;;;;51.47;25.60;;;4.50;99.90;;;;;;4916297;29;20978;-75
2021/12/06 15:30:14;;;;;;;45.27;24.17;;;4.50;99.90;;;;;;4916836;29;20462;-75
2021/12/06 15:32:46;;;;;;;41.10;23.50;;;4.50;99.90;;;;;;4917095;29;20454;-75
2021/12/06 15:35:13;;;;;;;41.50;23.63;;;4.40;99.90;;;;;;4917054;29;20478;-75
2021/12/06 15:37:40;;;;;;;41.40;23.97;;;4.50;99.90;;;;;;4916809;29;20936;-75
2021/12/06 15:40:12;;;;;;;50.30;22.37;;;4.50;99.90;;;;;;4916529;29;20450;-75
2021/12/06 15:42:39;;;;;;;41.83;25.67;;;4.50;99.90;;;;;;4916657;29;20577;-75
2021/12/06 15:45:09;;;;;;;43.80;24.80;;;4.50;99.90;;;;;;4916626;29;20990;-75
2021/12/06 15:47:46;;;;;;;38.73;22.80;;;4.50;99.90;;;;;;4916692;29;20455;-75
2021/12/06 15:50:17;;;;;;;38.53;23.20;;;4.40;99.90;;;;;;4916470;29;20457;-75
2021/12/06 15:52:48;;;;;;;47.80;22.20;;;4.40;99.90;;;;;;4916585;29;20471;-75
2021/12/06 15:55:18;;;;;;;40.37;22.43;;;4.40;99.90;;;;;;4916399;29;20482;-75
2021/12/06 15:57:46;;;;;;;34.17;19.63;;;4.40;99.90;;;;;;4916599;29;20450;-75
2021/12/06 16:00:19;;;;;;;36.57;21.70;;;4.30;99.90;;;;;;4916292;29;20466;-75
2021/12/06 16:02:49;;;;;;;40.53;21.60;;;4.30;99.90;;;;;;4916868;29;20541;-80
2021/12/06 16:05:20;;;;;;;41.63;21.50;;;4.30;99.90;;;;;;4918078;29;20479;-81
2021/12/06 16:07:52;;;;;;;38.50;23.10;;;4.30;99.90;;;;;;4918167;29;20552;-81
2021/12/06 16:10:20;;;;;;;43.20;21.83;;;4.30;99.90;;;;;;4916828;29;20554;-80
2021/12/06 16:12:52;;;;;;;43.57;22.90;;;4.20;99.90;;;;;;4917771;29;20510;-81
2021/12/06 16:15:25;;;;;;;39.27;21.33;;;4.20;99.90;;;;;;4917292;29;20487;-80
2021/12/06 16:17:55;;;;;;;45.30;22.93;;;4.20;99.90;;;;;;4917777;29;20446;-80
2021/12/06 16:20:23;;;;;;;44.60;24.43;;;4.10;99.90;;;;;;4917550;29;20439;-81
2021/12/06 16:22:52;;;;;;;46.63;23.27;;;4.10;99.90;;;;;;4917595;29;20499;-81
2021/12/06 16:25:20;;;;;;;44.43;25.50;;;4.00;99.90;;;;;;4917863;29;20979;-81
2021/12/06 16:27:57;;;;;;;42.50;25.57;;;4.10;99.90;;;;;;4916056;29;20510;-75
2021/12/06 16:30:26;;;;;;;40.10;22.90;;;4.10;99.90;;;;;;4915759;29;20446;-75
2021/12/06 16:32:55;;;;;;;49.13;27.00;;;4.10;99.90;;;;;;4916056;29;20457;-74
2021/12/06 16:35:25;;;;;;;44.43;24.53;;;4.10;99.90;;;;;;4915889;29;20570;-74
2021/12/06 16:37:52;;;;;;;43.80;23.73;;;4.10;99.90;;;;;;4916021;29;20498;-74
2021/12/06 16:40:30;;;;;;;41.53;23.07;;;4.10;99.90;;;;;;4915728;29;20451;-74
2021/12/06 16:43:05;;;;;;;47.57;24.00;;;4.10;99.90;;;;;;4915916;29;20502;-74
2021/12/06 16:45:33;;;;;;;39.10;22.17;;;4.10;99.90;;;;;;4915875;29;20896;-75
2021/12/06 16:48:02;;;;;;;37.93;21.50;;;4.10;99.90;;;;;;4915757;29;20459;-75
2021/12/06 16:50:31;;;;;;;35.90;21.83;;;4.00;99.90;;;;;;4915764;29;20538;-75
2021/12/06 16:53:00;;;;;;;44.40;23.33;;;4.00;99.90;;;;;;4915740;29;20458;-75
2021/12/06 16:55:31;;;;;;;39.77;22.77;;;4.10;99.90;;;;;;4915897;29;20482;-76
2021/12/06 16:58:02;;;;;;;79.80;35.03;;;4.00;99.90;;;;;;4915735;29;20490;-76
2021/12/06 17:00:32;;;;;;;47.23;25.87;;;3.80;99.90;;;;;;4915517;29;20482;-76
2021/12/06 17:03:04;;;;;;;72.17;39.90;;;3.60;99.90;;;;;;4915816;29;20494;-76
2021/12/06 17:05:33;;;;;;;159.93;83.93;;;3.50;99.90;;;;;;4915363;29;20474;-75
2021/12/06 17:08:12;;;;;;;94.27;46.90;;;3.40;99.90;;;;;;4915972;29;20557;-75
2021/12/06 17:10:42;;;;;;;66.40;37.23;;;3.40;99.90;;;;;;4915598;29;20478;-75
2021/12/06 17:13:10;;;;;;;60.53;31.70;;;3.50;99.90;;;;;;4916094;29;20447;-75
2021/12/06 17:15:40;;;;;;;57.97;30.00;;;3.60;99.90;;;;;;4986593;23;20523;-74
2021/12/06 17:18:11;;;;;;;51.00;27.87;;;3.70;99.90;;;;;;4972762;28;20539;-74
2021/12/06 17:20:41;;;;;;;46.30;23.30;;;3.70;99.90;;;;;;4972336;28;20539;-74
2021/12/06 17:23:11;;;;;;;45.47;24.53;;;3.70;99.90;;;;;;4972766;28;20578;-73
2021/12/06 17:25:41;;;;;;;45.30;24.60;;;3.80;99.90;;;;;;4956269;28;20512;-73
2021/12/06 17:28:23;;;;;;;53.90;29.83;;;3.80;99.90;;;;;;4953551;29;20531;-73
2021/12/06 17:30:53;;;;;;;48.17;28.50;;;3.80;99.90;;;;;;4953499;28;20464;-73
2021/12/06 17:33:24;;;;;;;62.93;33.87;;;3.90;99.90;;;;;;4953591;28;20535;-73
2021/12/06 17:35:56;;;;;;;54.50;28.57;;;3.80;99.90;;;;;;4953522;28;20552;-73
2021/12/06 17:38:24;;;;;;;53.07;28.70;;;3.80;99.90;;;;;;4954594;28;20488;-73
2021/12/06 17:40:52;;;;;;;79.30;39.87;;;3.80;99.90;;;;;;4956731;29;20540;-73
2021/12/06 17:43:19;;;;;;;64.43;35.27;;;3.80;99.90;;;;;;4957250;29;20520;-73
2021/12/06 17:45:46;;;;;;;48.80;28.93;;;3.80;99.90;;;;;;4957147;28;20518;-73
2021/12/06 17:48:13;;;;;;;50.30;29.67;;;3.80;99.90;;;;;;4957074;28;20480;-75
2021/12/06 17:50:42;;;;;;;51.80;28.20;;;3.80;99.90;;;;;;4956610;29;20970;-72
2021/12/06 17:53:09;;;;;;;52.37;30.10;;;3.80;99.90;;;;;;4956972;29;20485;-73